Terminal Aerodrome Forecast
Issued by NWS Charleston, SC

Home | Current Version | Previous Version | Text Only | Print | Product List | Glossary On
Versions: 1 2 3 4 5 6 7 8 9 10 11 12 13 14 15 16 17 18
000
FTUS42 KCHS 232331
TAFSAV
TAF
KSAV 232331Z 2400/2424 19012KT P6SM VCTS SCT040CB
     FM240100 21008KT P6SM FEW040 SCT200
     FM241600 25010KT P6SM SCT050
     FM242000 21012G18KT P6SM SCT040 BKN200=

USA.gov is the U.S. government's official web portal to all federal, state and local government web resources and services.